createdAt,value
2019-02-25T00:04:33.812Z,10.30
2019-02-25T00:09:37.429Z,13.43
2019-02-25T00:14:41.165Z,12.60
2019-02-25T00:19:46.382Z,10.93
2019-02-25T00:24:50.100Z,11.77
2019-02-25T00:29:53.836Z,10.80
2019-02-25T00:34:57.474Z,13.80
2019-02-25T00:40:01.149Z,10.47
2019-02-25T00:45:05.542Z,12.83
2019-02-25T00:50:10.888Z,10.70
2019-02-25T00:55:15.637Z,11.70
2019-02-25T01:00:19.528Z,13.80
2019-02-25T01:05:23.201Z,10.30
2019-02-25T01:10:26.857Z,12.53
2019-02-25T01:15:30.529Z,11.70
2019-02-25T01:20:34.247Z,10.97
2019-02-25T01:25:37.884Z,13.47
2019-02-25T01:30:41.614Z,12.07
2019-02-25T01:35:45.255Z,10.53
2019-02-25T01:40:48.923Z,11.00
2019-02-25T01:45:52.611Z,11.53
2019-02-25T01:50:56.251Z,10.70
2019-02-25T01:55:59.871Z,10.73
2019-02-25T02:01:03.834Z,9.70
2019-02-25T02:06:07.507Z,10.83
2019-02-25T02:11:11.495Z,9.27
2019-02-25T02:16:15.171Z,8.90
2019-02-25T02:21:18.814Z,9.87
2019-02-25T02:26:25.811Z,10.17
2019-02-25T02:31:29.523Z,8.70
2019-02-25T02:36:33.167Z,11.60
2019-02-25T02:42:13.147Z,9.67
2019-02-25T02:48:01.535Z,9.90
2019-02-25T02:53:05.216Z,8.47
2019-02-25T02:58:08.947Z,9.20
2019-02-25T03:03:12.659Z,9.80
2019-02-25T03:08:16.334Z,7.97
2019-02-25T03:13:20.131Z,8.33
2019-02-25T03:18:23.823Z,10.63
2019-02-25T03:23:27.461Z,9.80
2019-02-25T03:28:31.115Z,7.90
2019-02-25T03:33:34.746Z,7.53
2019-02-25T03:38:38.457Z,9.17
2019-02-25T03:43:42.092Z,8.30
2019-02-25T03:48:45.773Z,7.20
2019-02-25T03:53:49.408Z,7.57
2019-02-25T03:58:53.127Z,7.30
2019-02-25T04:03:56.836Z,6.77
2019-02-25T04:09:00.611Z,7.90
2019-02-25T04:14:04.394Z,9.57
2019-02-25T04:19:08.139Z,7.97
2019-02-25T04:24:11.875Z,7.37
2019-02-25T04:29:15.510Z,8.77
2019-02-25T04:34:19.179Z,8.03
2019-02-25T04:39:22.975Z,7.83
2019-02-25T04:44:26.649Z,7.13
2019-02-25T04:49:30.397Z,6.97
2019-02-25T04:54:34.120Z,7.80
2019-02-25T04:59:37.792Z,8.47
2019-02-25T05:04:41.557Z,5.90
2019-02-25T05:09:45.218Z,9.20
2019-02-25T05:14:48.928Z,7.77
2019-02-25T05:19:52.977Z,8.73
2019-02-25T05:24:56.605Z,7.47
2019-02-25T05:30:00.378Z,8.30
2019-02-25T05:35:04.812Z,9.07
2019-02-25T05:40:11.617Z,7.23
2019-02-25T05:45:15.266Z,10.60
2019-02-25T05:50:18.893Z,8.10
2019-02-25T05:55:22.626Z,9.27
2019-02-25T06:00:26.934Z,10.80
2019-02-25T06:05:30.660Z,9.03
2019-02-25T06:10:34.310Z,13.10
2019-02-25T06:15:38.026Z,9.77
2019-02-25T06:20:41.843Z,11.47
2019-02-25T06:25:45.583Z,22.90
2019-02-25T06:30:49.268Z,39.07
2019-02-25T06:35:53.014Z,59.53
2019-02-25T06:40:56.935Z,84.20
2019-02-25T06:46:00.900Z,111.97
2019-02-25T06:51:04.625Z,115.70
2019-02-25T06:56:09.881Z,117.53
2019-02-25T07:01:13.571Z,108.67
2019-02-25T07:06:25.112Z,113.30
2019-02-25T07:11:34.839Z,106.73
2019-02-25T07:16:51.403Z,98.03
2019-02-25T07:22:02.332Z,92.60
2019-02-25T07:27:26.915Z,90.60
2019-02-25T07:32:40.870Z,86.40
2019-02-25T07:38:03.764Z,74.30
2019-02-25T07:43:35.726Z,69.97
2019-02-25T07:48:46.636Z,74.10
2019-02-25T07:54:01.234Z,57.10
2019-02-25T07:59:17.166Z,51.67
2019-02-25T08:04:32.904Z,51.93
2019-02-25T08:09:43.008Z,48.80
2019-02-25T08:15:18.134Z,41.13
2019-02-25T08:20:39.750Z,32.80
2019-02-25T08:25:58.905Z,33.30
2019-02-25T08:31:19.369Z,25.50
2019-02-25T08:37:08.514Z,24.03
2019-02-25T08:42:21.730Z,19.67
2019-02-25T08:47:44.566Z,19.40
2019-02-25T08:52:48.323Z,15.47
2019-02-25T08:57:52.029Z,18.50
2019-02-25T09:02:55.696Z,18.33
2019-02-25T09:07:59.649Z,17.73
2019-02-25T09:13:03.409Z,17.17
2019-02-25T09:18:06.045Z,17.07
2019-02-25T09:23:09.749Z,16.80
2019-02-25T09:28:13.483Z,21.60
2019-02-25T09:33:17.313Z,24.10
2019-02-25T09:38:21.048Z,32.67
2019-02-25T09:43:24.724Z,29.67
2019-02-25T09:48:28.399Z,28.53
2019-02-25T09:53:32.177Z,21.03
2019-02-25T09:58:35.947Z,19.17
2019-02-25T10:03:39.675Z,20.63
2019-02-25T10:08:43.425Z,15.80
2019-02-25T10:13:47.162Z,15.47
2019-02-25T10:18:50.862Z,16.80
2019-02-25T10:23:54.593Z,11.63
2019-02-25T10:28:58.302Z,17.60
2019-02-25T10:34:01.933Z,13.77
2019-02-25T10:39:09.080Z,13.33
2019-02-25T10:44:13.167Z,12.73
2019-02-25T10:49:16.813Z,15.47
2019-02-25T10:54:21.286Z,11.70
2019-02-25T10:59:25.847Z,11.90
2019-02-25T11:04:29.729Z,15.77
2019-02-25T11:09:48.339Z,14.67
2019-02-25T11:14:52.216Z,10.90
2019-02-25T11:19:58.525Z,14.60
2019-02-25T11:25:03.903Z,13.90
2019-02-25T11:30:09.780Z,12.27
2019-02-25T11:35:14.447Z,19.70
2019-02-25T11:40:19.710Z,15.03
2019-02-25T11:45:23.603Z,21.23
2019-02-25T11:50:27.626Z,22.93
2019-02-25T11:55:31.722Z,21.27
2019-02-25T12:00:35.384Z,19.20
2019-02-25T12:05:39.056Z,16.90
2019-02-25T12:10:42.800Z,18.67
2019-02-25T12:15:46.492Z,17.87
2019-02-25T12:20:50.273Z,17.17
2019-02-25T12:25:54.007Z,12.67
2019-02-25T12:30:57.732Z,15.23
2019-02-25T12:36:01.655Z,12.97
2019-02-25T12:41:05.401Z,15.60
2019-02-25T12:46:09.152Z,17.67
2019-02-25T12:51:12.854Z,12.20
2019-02-25T12:56:16.632Z,10.90
2019-02-25T13:01:20.517Z,14.73
2019-02-25T13:06:24.304Z,8.80
2019-02-25T13:11:29.236Z,12.93
2019-02-25T13:16:35.838Z,12.83
2019-02-25T13:21:39.500Z,13.43
2019-02-25T13:26:43.172Z,43.67
2019-02-25T13:31:46.975Z,23.67
2019-02-25T13:36:51.024Z,13.70
2019-02-25T13:41:54.859Z,28.80
2019-02-25T13:46:58.651Z,36.30
2019-02-25T13:52:02.409Z,36.30
2019-02-25T13:57:06.506Z,20.57
2019-02-25T14:02:10.286Z,24.37
2019-02-25T14:07:15.113Z,31.27
2019-02-25T14:12:18.978Z,25.83
2019-02-25T14:17:22.841Z,22.70
2019-02-25T14:22:30.609Z,24.90
2019-02-25T14:27:36.190Z,27.13
2019-02-25T14:32:39.926Z,16.50
2019-02-25T14:37:43.790Z,19.43
2019-02-25T14:42:49.444Z,15.03
2019-02-25T14:47:57.557Z,12.53
2019-02-25T14:53:00.192Z,14.20
2019-02-25T14:58:05.326Z,16.33
2019-02-25T15:03:09.877Z,14.33
2019-02-25T15:08:13.629Z,12.70
2019-02-25T15:13:17.448Z,10.50
2019-02-25T15:18:25.182Z,13.27
2019-02-25T15:23:29.791Z,12.93
2019-02-25T15:28:33.792Z,10.40
2019-02-25T15:33:37.988Z,12.77
2019-02-25T15:38:43.429Z,12.47
2019-02-25T15:43:47.655Z,13.87
2019-02-25T15:48:51.392Z,9.30
2019-02-25T15:53:55.789Z,10.23
2019-02-25T15:59:00.713Z,10.83
2019-02-25T16:04:06.914Z,14.80
2019-02-25T16:09:10.742Z,12.33
2019-02-25T16:14:14.593Z,9.13
2019-02-25T16:19:18.482Z,10.77
2019-02-25T16:24:22.309Z,8.73
2019-02-25T16:29:26.889Z,8.10
2019-02-25T16:34:32.019Z,9.03
2019-02-25T16:39:36.141Z,9.40
2019-02-25T16:44:39.948Z,19.97
2019-02-25T16:49:43.826Z,8.00
2019-02-25T16:54:48.287Z,8.97
2019-02-25T16:59:55.896Z,8.90
2019-02-25T17:05:01.015Z,8.40
2019-02-25T17:10:05.814Z,8.13
2019-02-25T17:15:11.397Z,7.03
2019-02-25T17:20:16.139Z,10.20
2019-02-25T17:25:28.971Z,8.83
2019-02-25T17:30:31.897Z,10.37
2019-02-25T17:35:36.016Z,8.70
2019-02-25T17:40:39.990Z,13.93
2019-02-25T17:46:05.122Z,8.57
2019-02-25T17:51:08.666Z,12.17
2019-02-25T17:56:12.523Z,10.13
2019-02-25T18:01:17.386Z,13.60
2019-02-25T18:06:23.305Z,12.90
2019-02-25T18:11:27.645Z,14.93
2019-02-25T18:16:33.280Z,17.07
2019-02-25T18:21:38.256Z,17.77
2019-02-25T18:26:44.451Z,20.50
2019-02-25T18:31:47.660Z,16.93
2019-02-25T18:36:55.338Z,19.93
2019-02-25T18:41:59.264Z,18.33
2019-02-25T18:47:03.086Z,20.23
2019-02-25T18:52:06.911Z,18.57
2019-02-25T18:57:10.837Z,17.43
2019-02-25T19:02:16.644Z,18.23
2019-02-25T19:07:20.062Z,21.10
2019-02-25T19:12:23.829Z,18.50
2019-02-25T19:17:29.358Z,17.83
2019-02-25T19:22:35.524Z,19.03
2019-02-25T19:27:39.514Z,21.20
2019-02-25T19:32:43.402Z,15.10
2019-02-25T19:37:50.243Z,15.43
2019-02-25T19:42:56.784Z,15.07
2019-02-25T19:48:04.777Z,18.27
2019-02-25T19:53:12.484Z,12.77
2019-02-25T19:58:15.275Z,14.07
2019-02-25T20:03:19.143Z,15.67
2019-02-25T20:08:22.955Z,18.90
2019-02-25T20:13:26.885Z,19.00
2019-02-25T20:18:33.166Z,21.10
2019-02-25T20:23:36.386Z,17.73
2019-02-25T20:28:43.443Z,18.33
2019-02-25T20:33:59.056Z,19.60
2019-02-25T20:38:57.244Z,15.97
2019-02-25T20:44:03.295Z,18.90
2019-02-25T20:49:06.822Z,20.17
2019-02-25T20:54:11.755Z,16.77
2019-02-25T20:59:16.827Z,19.57
2019-02-25T21:04:22.315Z,14.53
2019-02-25T21:09:27.212Z,19.47
2019-02-25T21:14:31.771Z,15.77
2019-02-25T21:19:37.871Z,15.00
2019-02-25T21:24:43.370Z,15.20
2019-02-25T21:29:47.674Z,14.60
2019-02-25T21:34:52.818Z,13.87
2019-02-25T21:39:58.338Z,15.80
2019-02-25T21:45:02.509Z,15.00
2019-02-25T21:50:09.529Z,16.30
2019-02-25T21:55:15.612Z,16.60
2019-02-25T22:00:19.493Z,17.83
2019-02-25T22:05:23.692Z,21.43
2019-02-25T22:10:27.709Z,16.17
2019-02-25T22:15:31.445Z,17.40
2019-02-25T22:20:37.607Z,17.43
2019-02-25T22:25:40.822Z,14.37
2019-02-25T22:30:45.168Z,13.50
2019-02-25T22:35:52.193Z,13.90
2019-02-25T22:40:57.704Z,14.07
2019-02-25T22:46:05.430Z,16.23
2019-02-25T22:51:09.327Z,14.07
2019-02-25T22:56:13.552Z,12.80
2019-02-25T23:01:19.045Z,13.23
2019-02-25T23:06:25.373Z,13.00
2019-02-25T23:11:29.384Z,15.77
2019-02-25T23:16:33.130Z,13.60
2019-02-25T23:21:38.345Z,19.80
2019-02-25T23:26:44.373Z,12.33
2019-02-25T23:31:48.469Z,14.73
2019-02-25T23:36:56.671Z,22.43
2019-02-25T23:42:06.690Z,14.20
2019-02-25T23:47:13.483Z,12.70
2019-02-25T23:52:20.279Z,12.20
2019-02-25T23:57:26.091Z,13.33
